createdAt,value
2018-08-04T00:01:53.670Z,16.25
2018-08-04T00:04:21.839Z,17.02
2018-08-04T00:06:50.005Z,15.93
2018-08-04T00:09:18.165Z,15.48
2018-08-04T00:11:46.350Z,16.15
2018-08-04T00:14:14.523Z,16.95
2018-08-04T00:16:42.697Z,17.37
2018-08-04T00:19:10.862Z,16.80
2018-08-04T00:21:39.064Z,16.55
2018-08-04T00:24:07.222Z,17.30
2018-08-04T00:26:35.399Z,15.70
2018-08-04T00:29:03.789Z,16.62
2018-08-04T00:31:33.110Z,18.10
2018-08-04T00:34:01.294Z,15.25
2018-08-04T00:36:29.453Z,16.62
2018-08-04T00:38:57.626Z,16.90
2018-08-04T00:41:25.793Z,17.67
2018-08-04T00:43:53.969Z,16.50
2018-08-04T00:46:22.141Z,16.30
2018-08-04T00:48:50.313Z,17.52
2018-08-04T00:51:18.514Z,16.90
2018-08-04T00:53:46.677Z,16.60
2018-08-04T00:56:14.853Z,16.47
2018-08-04T00:58:43.012Z,17.40
2018-08-04T01:01:11.214Z,17.50
2018-08-04T01:03:39.385Z,17.85
2018-08-04T01:06:07.562Z,16.00
2018-08-04T01:08:35.722Z,17.10
2018-08-04T01:11:03.905Z,17.50
2018-08-04T01:13:32.070Z,16.82
2018-08-04T01:16:00.251Z,14.70
2018-08-04T01:18:28.419Z,16.87
2018-08-04T01:20:56.598Z,15.85
2018-08-04T01:23:24.767Z,16.55
2018-08-04T01:25:52.939Z,17.30
2018-08-04T01:28:21.122Z,18.12
2018-08-04T01:30:49.278Z,18.32
2018-08-04T01:33:17.437Z,17.05
2018-08-04T01:35:45.607Z,16.40
2018-08-04T01:38:13.795Z,16.90
2018-08-04T01:40:41.990Z,16.12
2018-08-04T01:43:10.178Z,16.60
2018-08-04T01:45:38.346Z,17.20
2018-08-04T01:48:06.533Z,16.02
2018-08-04T01:50:34.710Z,17.12
2018-08-04T01:53:02.885Z,16.40
2018-08-04T01:55:31.053Z,17.70
2018-08-04T01:57:59.245Z,16.40
2018-08-04T02:00:27.397Z,16.62
2018-08-04T02:02:55.564Z,17.63
2018-08-04T02:05:23.729Z,17.80
2018-08-04T02:07:51.983Z,17.48
2018-08-04T02:10:20.158Z,16.55
2018-08-04T02:12:48.346Z,17.67
2018-08-04T02:15:16.526Z,18.73
2018-08-04T02:17:44.742Z,17.10
2018-08-04T02:20:12.918Z,17.02
2018-08-04T02:22:41.097Z,17.10
2018-08-04T02:25:09.287Z,18.30
2018-08-04T02:27:37.482Z,17.20
2018-08-04T02:30:05.678Z,17.60
2018-08-04T02:32:33.891Z,18.93
2018-08-04T02:35:02.060Z,19.10
2018-08-04T02:37:30.250Z,17.82
2018-08-04T02:39:58.434Z,16.93
2018-08-04T02:42:26.621Z,17.73
2018-08-04T02:44:54.794Z,18.62
2018-08-04T02:47:23.004Z,18.60
2018-08-04T02:49:51.170Z,17.40
2018-08-04T02:52:19.369Z,19.70
2018-08-04T02:54:47.529Z,19.40
2018-08-04T02:57:15.766Z,18.52
2018-08-04T02:59:43.941Z,19.17
2018-08-04T03:02:12.131Z,18.02
2018-08-04T03:04:40.308Z,17.80
2018-08-04T03:07:08.497Z,17.40
2018-08-04T03:09:36.695Z,17.50
2018-08-04T03:12:04.974Z,19.17
2018-08-04T03:14:33.151Z,17.10
2018-08-04T03:17:01.326Z,17.10
2018-08-04T03:19:29.534Z,15.68
2018-08-04T03:21:57.718Z,16.60
2018-08-04T03:24:25.905Z,17.20
2018-08-04T03:26:54.081Z,18.07
2018-08-04T03:29:22.277Z,17.90
2018-08-04T03:31:50.454Z,18.60
2018-08-04T03:34:18.641Z,18.57
2018-08-04T03:36:46.833Z,18.85
2018-08-04T03:39:15.034Z,18.62
2018-08-04T03:41:43.209Z,18.25
2018-08-04T03:44:11.389Z,19.80
2018-08-04T03:46:39.560Z,18.12
2018-08-04T03:49:07.749Z,16.70
2018-08-04T03:51:35.961Z,17.92
2018-08-04T03:54:04.141Z,17.87
2018-08-04T03:56:32.301Z,18.67
2018-08-04T03:59:00.500Z,19.20
2018-08-04T04:01:28.685Z,18.10
2018-08-04T04:03:56.854Z,17.82
2018-08-04T04:06:25.029Z,17.50
2018-08-04T04:08:53.229Z,17.73
2018-08-04T04:11:21.418Z,18.77
2018-08-04T04:13:49.603Z,18.90
2018-08-04T04:16:17.795Z,19.30
2018-08-04T04:18:45.962Z,18.82
2018-08-04T04:21:14.120Z,18.17
2018-08-04T04:23:42.265Z,17.75
2018-08-04T04:26:10.425Z,18.17
2018-08-04T04:28:38.601Z,18.95
2018-08-04T04:31:06.768Z,19.02
2018-08-04T04:33:34.919Z,17.95
2018-08-04T04:36:03.087Z,20.00
2018-08-04T04:38:31.237Z,18.87
2018-08-04T04:40:59.398Z,19.00
2018-08-04T04:43:27.577Z,19.50
2018-08-04T04:45:55.763Z,19.70
2018-08-04T04:48:23.905Z,18.42
2018-08-04T04:50:52.101Z,18.65
2018-08-04T04:53:20.252Z,18.90
2018-08-04T04:55:48.420Z,19.40
2018-08-04T04:58:16.562Z,18.77
2018-08-04T05:00:44.753Z,17.82
2018-08-04T05:03:12.904Z,19.07
2018-08-04T05:05:41.065Z,17.03
2018-08-04T05:08:09.217Z,19.80
2018-08-04T05:10:37.413Z,21.00
2018-08-04T05:13:05.794Z,20.60
2018-08-04T05:15:33.974Z,18.62
2018-08-04T05:18:02.154Z,17.50
2018-08-04T05:20:30.317Z,17.82
2018-08-04T05:22:58.507Z,18.27
2018-08-04T05:25:26.677Z,19.37
2018-08-04T05:27:54.841Z,21.30
2018-08-04T05:30:23.018Z,19.32
2018-08-04T05:32:51.213Z,19.20
2018-08-04T05:35:19.389Z,17.80
2018-08-04T05:37:47.562Z,20.65
2018-08-04T05:40:15.729Z,21.05
2018-08-04T05:42:43.925Z,21.57
2018-08-04T05:45:11.870Z,19.57
2018-08-04T05:47:40.053Z,18.90
2018-08-04T05:50:08.292Z,19.45
2018-08-04T05:52:36.438Z,19.40
2018-08-04T05:55:04.685Z,20.48
2018-08-04T05:57:32.862Z,19.80
2018-08-04T06:00:01.037Z,20.15
2018-08-04T06:02:29.309Z,19.07
2018-08-04T06:04:57.490Z,19.95
2018-08-04T06:07:25.653Z,18.60
2018-08-04T06:09:53.857Z,17.98
2018-08-04T06:12:22.052Z,18.90
2018-08-04T06:14:50.234Z,18.77
2018-08-04T06:17:18.439Z,18.67
2018-08-04T06:19:46.597Z,18.05
2018-08-04T06:22:14.781Z,18.92
2018-08-04T06:24:42.996Z,18.20
2018-08-04T06:27:11.153Z,17.80
2018-08-04T06:29:39.541Z,18.92
2018-08-04T06:32:08.042Z,19.30
2018-08-04T06:34:36.217Z,19.80
2018-08-04T06:37:04.458Z,19.90
2018-08-04T06:39:32.629Z,18.55
2018-08-04T06:42:03.887Z,18.90
2018-08-04T06:44:32.055Z,18.17
2018-08-04T06:47:00.241Z,17.87
2018-08-04T06:49:28.411Z,18.15
2018-08-04T06:51:56.577Z,18.25
2018-08-04T06:54:24.765Z,16.32
2018-08-04T06:56:52.929Z,17.37
2018-08-04T06:59:21.122Z,17.20
2018-08-04T07:01:49.315Z,16.65
2018-08-04T07:04:17.490Z,16.50
2018-08-04T07:06:45.675Z,17.60
2018-08-04T07:09:13.854Z,18.10
2018-08-04T07:11:42.038Z,17.70
2018-08-04T07:14:10.290Z,17.83
2018-08-04T07:16:38.771Z,16.55
2018-08-04T07:19:06.933Z,16.30
2018-08-04T07:21:35.229Z,15.93
2018-08-04T07:24:03.394Z,16.02
2018-08-04T07:26:31.566Z,14.83
2018-08-04T07:28:59.800Z,14.40
2018-08-04T07:31:27.929Z,14.90
2018-08-04T07:33:56.077Z,14.47
2018-08-04T07:36:24.253Z,14.20
2018-08-04T07:38:52.422Z,12.68
2018-08-04T07:41:20.683Z,13.60
2018-08-04T07:43:48.901Z,12.93
2018-08-04T07:46:17.074Z,12.45
2018-08-04T07:48:45.245Z,12.28
2018-08-04T07:51:13.429Z,12.37
2018-08-04T07:53:41.600Z,10.15
2018-08-04T07:56:09.797Z,10.20
2018-08-04T07:58:37.970Z,9.90
2018-08-04T08:01:06.373Z,11.63
2018-08-04T08:03:34.535Z,11.90
2018-08-04T08:06:02.737Z,11.05
2018-08-04T08:08:30.910Z,11.90
2018-08-04T08:10:59.099Z,10.13
2018-08-04T08:13:27.281Z,10.35
2018-08-04T08:15:55.453Z,10.40
2018-08-04T08:18:23.628Z,10.50
2018-08-04T08:20:51.813Z,10.03
2018-08-04T08:23:20.045Z,9.65
2018-08-04T08:25:59.674Z,9.33
2018-08-04T08:28:27.849Z,9.90
2018-08-04T08:30:56.077Z,9.35
2018-08-04T08:33:24.257Z,8.80
2018-08-04T08:35:52.422Z,9.63
2018-08-04T08:38:20.618Z,9.60
2018-08-04T08:40:48.816Z,10.45
2018-08-04T08:43:16.997Z,9.30
2018-08-04T08:45:45.177Z,9.80
2018-08-04T08:48:13.354Z,9.23
2018-08-04T08:50:41.533Z,9.45
2018-08-04T08:53:09.773Z,9.70
2018-08-04T08:55:37.902Z,10.37
2018-08-04T08:58:06.102Z,9.10
2018-08-04T09:00:34.293Z,8.85
2018-08-04T09:03:02.465Z,9.85
2018-08-04T09:05:30.400Z,9.08
2018-08-04T09:07:58.577Z,10.32
2018-08-04T09:10:26.774Z,9.80
2018-08-04T09:12:54.933Z,10.32
2018-08-04T09:15:23.108Z,9.80
2018-08-04T09:17:51.298Z,9.95
2018-08-04T09:20:19.461Z,9.63
2018-08-04T09:22:47.646Z,9.10
2018-08-04T09:25:15.588Z,9.23
2018-08-04T09:27:43.787Z,9.05
2018-08-04T09:30:13.213Z,8.05
2018-08-04T09:32:42.621Z,8.63
2018-08-04T09:35:11.112Z,8.58
2018-08-04T09:37:39.285Z,8.30
2018-08-04T09:40:09.585Z,8.15
2018-08-04T09:42:37.760Z,7.13
2018-08-04T09:45:07.122Z,7.30
2018-08-04T09:47:35.313Z,7.58
2018-08-04T09:50:03.567Z,7.17
2018-08-04T09:52:31.812Z,6.87
2018-08-04T09:54:59.956Z,6.53
2018-08-04T09:57:28.141Z,7.58
2018-08-04T09:59:56.322Z,6.95
2018-08-04T10:02:24.493Z,7.13
2018-08-04T10:04:53.200Z,7.40
2018-08-04T10:07:21.415Z,6.53
2018-08-04T10:09:50.025Z,6.92
2018-08-04T10:12:18.205Z,6.87
2018-08-04T10:14:46.453Z,7.40
2018-08-04T10:17:14.966Z,6.67
2018-08-04T10:19:43.373Z,6.87
2018-08-04T10:22:12.273Z,6.95
2018-08-04T10:24:40.422Z,7.20
2018-08-04T10:27:08.591Z,6.90
2018-08-04T10:29:37.133Z,7.30
2018-08-04T10:32:05.611Z,7.30
2018-08-04T10:34:33.713Z,7.90
2018-08-04T10:37:01.856Z,8.03
2018-08-04T10:39:30.024Z,7.22
2018-08-04T10:41:58.194Z,7.80
2018-08-04T10:44:26.341Z,7.37
2018-08-04T10:46:54.502Z,7.42
2018-08-04T10:49:22.686Z,7.10
2018-08-04T10:51:50.802Z,8.20
2018-08-04T10:54:18.982Z,7.45
2018-08-04T10:56:47.134Z,7.03
2018-08-04T10:59:15.300Z,6.30
2018-08-04T11:01:43.469Z,6.03
2018-08-04T11:04:11.644Z,6.00
2018-08-04T11:06:39.797Z,6.77
2018-08-04T11:09:09.456Z,6.65
2018-08-04T11:11:37.610Z,6.10
2018-08-04T11:14:06.534Z,5.70
2018-08-04T11:16:34.692Z,6.10
2018-08-04T11:19:03.005Z,6.43
2018-08-04T11:21:31.153Z,6.08
2018-08-04T11:23:59.349Z,6.60
2018-08-04T11:26:27.485Z,5.90
2018-08-04T11:28:55.670Z,6.00
2018-08-04T11:31:23.838Z,6.40
2018-08-04T11:33:52.026Z,6.10
2018-08-04T11:36:20.177Z,6.30
2018-08-04T11:38:48.342Z,6.30
2018-08-04T11:41:16.502Z,5.85
2018-08-04T11:43:44.689Z,5.85
2018-08-04T11:46:12.829Z,6.30
2018-08-04T11:48:40.976Z,6.70
2018-08-04T11:51:09.129Z,6.50
2018-08-04T11:53:37.283Z,7.35
2018-08-04T11:56:05.518Z,6.65
2018-08-04T11:58:33.670Z,6.60
2018-08-04T12:01:02.069Z,6.67
2018-08-04T12:03:30.214Z,7.00
2018-08-04T12:05:58.366Z,6.60
2018-08-04T12:08:26.535Z,6.55
2018-08-04T12:10:54.793Z,6.50
2018-08-04T12:13:22.957Z,6.95
2018-08-04T12:15:51.113Z,6.40
2018-08-04T12:18:19.276Z,6.70
2018-08-04T12:20:47.461Z,6.60
2018-08-04T12:23:15.645Z,6.40
2018-08-04T12:25:43.790Z,6.42
2018-08-04T12:28:11.972Z,6.50
2018-08-04T12:30:40.114Z,6.40
2018-08-04T12:33:08.301Z,6.17
2018-08-04T12:35:36.462Z,5.55
2018-08-04T12:38:04.609Z,6.12
2018-08-04T12:40:32.766Z,6.33
2018-08-04T12:43:00.914Z,6.60
2018-08-04T12:45:29.084Z,6.60
2018-08-04T12:47:57.234Z,6.43
2018-08-04T12:50:25.406Z,6.20
2018-08-04T12:52:53.549Z,6.47
2018-08-04T12:55:21.965Z,6.87
2018-08-04T12:57:50.110Z,6.42
2018-08-04T13:00:18.261Z,6.40
2018-08-04T13:02:46.458Z,6.40
2018-08-04T13:05:14.589Z,7.45
2018-08-04T13:07:42.746Z,6.90
2018-08-04T13:10:10.897Z,7.30
2018-08-04T13:12:39.080Z,8.28
2018-08-04T13:15:07.882Z,7.90
2018-08-04T13:17:36.049Z,7.65
2018-08-04T13:20:04.313Z,7.50
2018-08-04T13:22:32.508Z,7.30
2018-08-04T13:25:00.680Z,7.33
2018-08-04T13:27:28.857Z,7.40
2018-08-04T13:29:57.011Z,6.10
2018-08-04T13:32:25.188Z,6.70
2018-08-04T13:34:53.321Z,6.45
2018-08-04T13:37:21.491Z,7.10
2018-08-04T13:39:49.666Z,6.87
2018-08-04T13:42:17.817Z,7.20
2018-08-04T13:44:45.956Z,6.40
2018-08-04T13:47:14.109Z,6.70
2018-08-04T13:49:42.266Z,7.00
2018-08-04T13:52:10.450Z,6.78
2018-08-04T13:54:38.602Z,7.00
2018-08-04T13:57:06.771Z,6.40
2018-08-04T13:59:34.934Z,6.47
2018-08-04T14:02:03.086Z,6.97
2018-08-04T14:04:31.237Z,6.53
2018-08-04T14:06:59.405Z,7.20
2018-08-04T14:09:27.549Z,7.00
2018-08-04T14:11:55.739Z,7.50
2018-08-04T14:14:23.821Z,6.83
2018-08-04T14:16:51.965Z,6.97
2018-08-04T14:19:20.939Z,7.50
2018-08-04T14:21:49.090Z,7.47
2018-08-04T14:24:17.240Z,8.27
2018-08-04T14:26:45.376Z,6.97
2018-08-04T14:29:13.530Z,6.40
2018-08-04T14:31:41.666Z,6.40
2018-08-04T14:34:09.797Z,6.10
2018-08-04T14:36:37.937Z,7.13
2018-08-04T14:39:09.547Z,6.67
2018-08-04T14:41:37.697Z,7.53
2018-08-04T14:44:05.854Z,7.10
2018-08-04T14:46:34.013Z,6.43
2018-08-04T14:49:02.153Z,7.10
2018-08-04T14:51:30.289Z,7.10
